createdAt,value
2023-03-24T00:01:08.581Z,4.60
2023-03-24T00:07:14.465Z,4.40
2023-03-24T00:13:16.327Z,4.90
2023-03-24T00:19:19.416Z,5.00
2023-03-24T00:25:23.122Z,4.60
2023-03-24T00:31:25.158Z,4.60
2023-03-24T00:37:26.821Z,4.40
2023-03-24T00:43:29.139Z,4.60
2023-03-24T00:49:44.182Z,4.70
2023-03-24T00:55:48.799Z,4.50
2023-03-24T01:01:50.868Z,4.10
2023-03-24T01:07:55.720Z,4.40
2023-03-24T01:13:57.928Z,4.00
2023-03-24T01:20:06.893Z,3.90
2023-03-24T01:26:09.993Z,4.20
2023-03-24T01:32:11.797Z,4.10
2023-03-24T01:38:14.064Z,3.80
2023-03-24T01:44:33.611Z,3.90
2023-03-24T01:50:35.326Z,4.30
2023-03-24T01:56:41.868Z,4.10
2023-03-24T02:08:54.912Z,4.70
2023-03-24T02:14:57.111Z,4.20
2023-03-24T02:20:58.606Z,4.20
2023-03-24T02:27:03.046Z,4.20
2023-03-24T02:33:16.879Z,4.00
2023-03-24T02:39:29.294Z,4.00
2023-03-24T02:45:44.730Z,4.30
2023-03-24T02:51:57.892Z,4.20
2023-03-24T02:58:11.025Z,4.20
2023-03-24T03:04:32.314Z,4.00
2023-03-24T03:10:43.253Z,4.10
2023-03-24T03:16:59.203Z,4.40
2023-03-24T03:23:05.123Z,4.50
2023-03-24T03:29:21.280Z,4.30
2023-03-24T03:36:00.339Z,4.40
2023-03-24T03:42:02.876Z,3.90
2023-03-24T03:48:05.260Z,4.00
2023-03-24T03:54:10.117Z,4.10
2023-03-24T04:00:16.416Z,5.10
2023-03-24T04:06:53.184Z,5.50
2023-03-24T04:13:13.808Z,4.50
2023-03-24T04:20:11.542Z,4.50
2023-03-24T04:26:28.034Z,4.30
2023-03-24T04:32:46.318Z,4.70
2023-03-24T04:38:52.516Z,4.80
2023-03-24T04:45:05.683Z,4.60
2023-03-24T04:51:21.644Z,4.70
2023-03-24T04:57:34.624Z,4.70
2023-03-24T05:03:41.527Z,4.60
2023-03-24T05:09:43.260Z,4.80
2023-03-24T05:15:46.099Z,4.20
2023-03-24T05:22:08.074Z,4.70
2023-03-24T05:28:09.626Z,4.70
2023-03-24T05:34:11.091Z,4.40
2023-03-24T05:40:22.655Z,4.20
2023-03-24T05:46:44.489Z,4.70
2023-03-24T05:52:45.974Z,4.70
2023-03-24T05:59:05.119Z,5.10
2023-03-24T06:05:47.102Z,5.40
2023-03-24T06:11:49.531Z,5.10
2023-03-24T06:17:55.090Z,4.60
2023-03-24T06:24:07.076Z,4.50
2023-03-24T06:30:10.376Z,4.90
2023-03-24T06:36:12.822Z,4.50
2023-03-24T06:42:17.919Z,5.00
2023-03-24T06:48:19.737Z,4.70
2023-03-24T06:54:21.643Z,5.00
2023-03-24T07:00:25.132Z,5.30
2023-03-24T07:06:58.647Z,4.90
2023-03-24T07:13:07.367Z,4.90
2023-03-24T07:19:09.675Z,4.80
2023-03-24T07:25:13.612Z,5.00
2023-03-24T07:31:22.262Z,5.10
2023-03-24T07:37:27.906Z,5.10
2023-03-24T07:43:29.785Z,5.10
2023-03-24T07:49:53.237Z,5.20
2023-03-24T07:55:57.231Z,5.60
2023-03-24T08:02:00.187Z,5.10
2023-03-24T08:08:24.108Z,5.30
2023-03-24T08:14:26.309Z,4.90
2023-03-24T08:20:28.895Z,4.80
2023-03-24T08:26:34.377Z,5.50
2023-03-24T08:32:36.211Z,5.20
2023-03-24T08:38:40.404Z,4.90
2023-03-24T08:44:41.938Z,5.00
2023-03-24T08:50:43.614Z,4.60
2023-03-24T08:56:47.696Z,4.40
2023-03-24T09:02:53.234Z,5.00
2023-03-24T09:08:54.972Z,5.60
2023-03-24T09:14:56.510Z,5.40
2023-03-24T09:20:58.038Z,4.60
2023-03-24T09:26:59.701Z,4.60
2023-03-24T09:33:01.735Z,4.60
2023-03-24T09:39:03.329Z,5.00
2023-03-24T09:45:20.735Z,3.90
2023-03-24T09:51:27.537Z,4.10
2023-03-24T09:57:35.922Z,4.10
2023-03-24T10:03:37.859Z,4.00
2023-03-24T10:09:39.935Z,3.90
2023-03-24T10:15:48.459Z,4.50
2023-03-24T10:22:16.337Z,3.80
2023-03-24T10:28:39.424Z,3.70
2023-03-24T10:34:43.921Z,3.60
2023-03-24T10:40:47.154Z,4.10
2023-03-24T10:46:52.961Z,3.80
2023-03-24T10:52:55.342Z,3.60
2023-03-24T10:58:57.158Z,3.30
2023-03-24T11:05:13.707Z,3.40
2023-03-24T11:11:33.735Z,4.00
2023-03-24T11:17:35.461Z,3.00
2023-03-24T11:23:44.076Z,2.80
2023-03-24T11:29:51.126Z,2.60
2023-03-24T11:35:59.303Z,2.50
2023-03-24T11:42:11.383Z,3.10
2023-03-24T11:48:41.239Z,2.60
2023-03-24T11:54:43.618Z,2.70
2023-03-24T12:00:55.237Z,2.30
2023-03-24T12:07:15.788Z,2.20
2023-03-24T12:13:39.204Z,2.20
2023-03-24T12:19:43.820Z,2.30
2023-03-24T12:25:55.540Z,1.80
2023-03-24T12:32:36.844Z,2.20
2023-03-24T12:39:09.221Z,2.00
2023-03-24T12:45:22.027Z,2.30
2023-03-24T12:51:52.781Z,2.60
2023-03-24T12:57:59.868Z,2.50
2023-03-24T13:04:10.270Z,2.40
2023-03-24T13:10:14.774Z,2.40
2023-03-24T13:16:22.603Z,2.30
2023-03-24T13:22:24.729Z,2.80
2023-03-24T13:28:35.666Z,2.20
2023-03-24T13:34:40.685Z,2.20
2023-03-24T13:40:42.974Z,2.40
2023-03-24T13:47:19.025Z,2.10
2023-03-24T13:53:36.839Z,2.40
2023-03-24T13:59:41.160Z,2.40
2023-03-24T14:06:00.501Z,2.60
2023-03-24T14:12:02.519Z,2.50
2023-03-24T14:18:24.251Z,2.40
2023-03-24T14:24:28.831Z,2.60
2023-03-24T14:30:31.247Z,2.40
2023-03-24T14:36:42.102Z,2.40
2023-03-24T14:42:43.625Z,2.50
2023-03-24T14:49:23.624Z,2.30
2023-03-24T14:55:26.419Z,2.30
2023-03-24T15:01:37.452Z,2.60
2023-03-24T15:07:39.845Z,2.60
2023-03-24T15:13:52.767Z,2.50
2023-03-24T15:19:54.707Z,2.60
2023-03-24T15:25:56.510Z,3.00
2023-03-24T15:31:58.233Z,2.90
2023-03-24T15:38:00.049Z,3.10
2023-03-24T15:44:07.553Z,2.70
2023-03-24T15:50:35.471Z,3.20
2023-03-24T15:56:37.504Z,3.10
2023-03-24T16:02:42.718Z,3.20
2023-03-24T16:08:45.887Z,3.10
2023-03-24T16:14:47.437Z,3.30
2023-03-24T16:20:51.307Z,3.40
2023-03-24T16:26:53.208Z,3.80
2023-03-24T16:32:55.012Z,4.10
2023-03-24T16:38:58.290Z,3.60
2023-03-24T16:45:00.572Z,3.80
2023-03-24T16:51:02.598Z,3.90
2023-03-24T16:57:04.284Z,4.30
2023-03-24T17:03:06.350Z,2.80
2023-03-24T17:09:09.323Z,3.30
2023-03-24T17:15:26.154Z,3.40
2023-03-24T17:21:28.351Z,3.40
2023-03-24T17:27:30.334Z,2.80
2023-03-24T17:33:36.027Z,3.00
2023-03-24T17:39:38.504Z,3.00
2023-03-24T17:45:40.933Z,2.50
2023-03-24T17:51:42.503Z,2.80
2023-03-24T17:57:44.653Z,3.50
2023-03-24T18:03:49.092Z,3.70
2023-03-24T18:09:51.314Z,3.70
2023-03-24T18:15:54.786Z,3.80
2023-03-24T18:21:56.367Z,3.70
2023-03-24T18:28:00.690Z,3.90
2023-03-24T18:34:05.764Z,4.10
2023-03-24T18:40:08.664Z,4.30
2023-03-24T18:46:10.967Z,4.10
2023-03-24T18:52:17.278Z,4.30
2023-03-24T18:58:24.820Z,6.30
2023-03-24T19:04:28.921Z,5.90
2023-03-24T19:10:34.969Z,5.90
2023-03-24T19:16:44.009Z,5.90
2023-03-24T19:22:47.089Z,5.80
2023-03-24T19:28:48.992Z,6.00
2023-03-24T19:34:50.892Z,5.90
2023-03-24T19:40:55.579Z,5.00
2023-03-24T19:46:58.587Z,4.50
2023-03-24T19:53:00.397Z,4.00
2023-03-24T19:59:04.327Z,3.90
2023-03-24T20:05:09.584Z,4.20
2023-03-24T20:11:11.752Z,4.20
2023-03-24T20:17:18.716Z,4.90
2023-03-24T20:23:21.596Z,4.80
2023-03-24T20:29:23.353Z,5.80
2023-03-24T20:35:27.244Z,5.20
2023-03-24T20:41:28.971Z,5.60
2023-03-24T20:47:30.939Z,4.60
2023-03-24T20:53:34.112Z,4.80
2023-03-24T20:59:37.445Z,5.10
2023-03-24T21:05:39.106Z,4.90
2023-03-24T21:11:40.580Z,5.50
2023-03-24T21:17:42.445Z,7.00
2023-03-24T21:23:44.387Z,6.90
2023-03-24T21:29:46.100Z,6.70
2023-03-24T21:35:47.941Z,7.50
2023-03-24T21:41:51.659Z,7.60
2023-03-24T21:47:54.321Z,8.00
2023-03-24T21:53:56.049Z,7.40
2023-03-24T21:59:58.642Z,7.40
2023-03-24T22:06:00.349Z,6.40
2023-03-24T22:12:01.826Z,6.50
2023-03-24T22:18:03.603Z,6.00
2023-03-24T22:24:05.841Z,5.70
2023-03-24T22:30:11.386Z,5.10
2023-03-24T22:36:12.869Z,5.80
2023-03-24T22:42:15.324Z,4.70
2023-03-24T22:48:17.088Z,5.10
2023-03-24T22:54:18.664Z,5.20
2023-03-24T23:00:20.557Z,5.20
2023-03-24T23:06:22.131Z,5.10
2023-03-24T23:12:24.366Z,4.70
2023-03-24T23:18:25.833Z,5.40
2023-03-24T23:24:28.082Z,4.90
2023-03-24T23:30:29.650Z,5.10
2023-03-24T23:36:33.404Z,4.80
2023-03-24T23:42:36.498Z,5.70
2023-03-24T23:48:38.000Z,5.10
2023-03-24T23:54:39.684Z,4.80
